createdAt,value
2023-05-17T00:00:48.505Z,1.50
2023-05-17T00:01:51.502Z,2.00
2023-05-17T00:02:54.507Z,2.50
2023-05-17T00:03:57.068Z,2.00
2023-05-17T00:04:59.756Z,2.00
2023-05-17T00:06:02.514Z,1.00
2023-05-17T00:07:05.105Z,0.50
2023-05-17T00:08:07.742Z,0.50
2023-05-17T00:09:10.326Z,1.00
2023-05-17T00:10:13.024Z,1.50
2023-05-17T00:11:15.725Z,1.50
2023-05-17T00:12:18.294Z,2.25
2023-05-17T00:13:21.193Z,2.00
2023-05-17T00:14:24.210Z,1.50
2023-05-17T00:15:27.271Z,0.50
2023-05-17T00:16:30.274Z,1.50
2023-05-17T00:17:33.283Z,1.50
2023-05-17T00:18:39.070Z,1.00
2023-05-17T00:19:40.406Z,1.25
2023-05-17T00:20:43.068Z,0.60
2023-05-17T00:21:45.903Z,0.75
2023-05-17T00:22:48.651Z,1.00
2023-05-17T00:23:51.584Z,0.50
2023-05-17T00:24:54.537Z,1.00
2023-05-17T00:25:57.371Z,1.75
2023-05-17T00:27:00.251Z,2.00
2023-05-17T00:28:03.153Z,1.00
2023-05-17T00:29:05.801Z,1.00
2023-05-17T00:30:08.674Z,1.00
2023-05-17T00:31:11.495Z,1.50
2023-05-17T00:32:17.240Z,1.00
2023-05-17T00:33:22.949Z,0.50
2023-05-17T00:34:25.668Z,1.00
2023-05-17T00:35:31.466Z,2.00
2023-05-17T00:36:34.156Z,1.50
2023-05-17T00:37:36.890Z,1.00
2023-05-17T00:38:39.682Z,1.00
2023-05-17T00:39:42.387Z,1.00
2023-05-17T00:40:45.114Z,1.50
2023-05-17T00:41:47.807Z,2.50
2023-05-17T00:42:50.475Z,2.00
2023-05-17T00:43:56.322Z,2.00
2023-05-17T00:44:58.977Z,2.50
2023-05-17T00:46:01.653Z,1.50
2023-05-17T00:47:04.383Z,1.00
2023-05-17T00:48:07.181Z,1.00
2023-05-17T00:49:10.044Z,2.00
2023-05-17T00:50:12.733Z,2.00
2023-05-17T00:51:15.380Z,2.00
2023-05-17T00:52:18.056Z,1.50
2023-05-17T00:53:20.757Z,1.00
2023-05-17T00:54:23.429Z,1.00
2023-05-17T00:55:26.283Z,1.00
2023-05-17T00:56:29.245Z,1.50
2023-05-17T00:57:35.081Z,2.00
2023-05-17T00:58:37.888Z,1.25
2023-05-17T00:59:40.609Z,1.50
2023-05-17T01:00:43.339Z,1.75
2023-05-17T01:01:46.008Z,0.75
2023-05-17T01:02:48.840Z,1.25
2023-05-17T01:03:51.868Z,2.00
2023-05-17T01:04:54.796Z,1.25
2023-05-17T01:05:57.497Z,0.50
2023-05-17T01:07:00.168Z,0.50
2023-05-17T01:08:02.834Z,1.00
2023-05-17T01:09:05.482Z,2.50
2023-05-17T01:10:08.142Z,2.50
2023-05-17T01:11:10.823Z,1.50
2023-05-17T01:12:13.530Z,0.75
2023-05-17T01:13:16.187Z,1.00
2023-05-17T01:14:18.806Z,1.50
2023-05-17T01:15:21.414Z,1.25
2023-05-17T01:16:24.017Z,1.25
2023-05-17T01:17:26.717Z,1.50
2023-05-17T01:18:29.611Z,2.00
2023-05-17T01:19:32.404Z,1.75
2023-05-17T01:20:35.318Z,1.00
2023-05-17T01:21:38.109Z,2.00
2023-05-17T01:22:40.820Z,2.00
2023-05-17T01:23:46.363Z,2.50
2023-05-17T01:24:49.161Z,2.00
2023-05-17T01:25:52.042Z,1.00
2023-05-17T01:26:57.796Z,1.75
2023-05-17T01:28:00.502Z,2.00
2023-05-17T01:29:06.244Z,2.00
2023-05-17T01:30:11.833Z,1.50
2023-05-17T01:31:14.584Z,1.00
2023-05-17T01:32:17.269Z,2.00
2023-05-17T01:33:20.054Z,2.00
2023-05-17T01:34:22.793Z,1.00
2023-05-17T01:35:25.579Z,1.50
2023-05-17T01:36:28.163Z,1.00
2023-05-17T01:37:30.865Z,0.50
2023-05-17T01:38:33.523Z,2.00
2023-05-17T01:39:36.196Z,2.75
2023-05-17T01:40:38.887Z,1.75
2023-05-17T01:41:41.600Z,1.80
2023-05-17T01:42:44.276Z,2.00
2023-05-17T01:43:46.975Z,0.75
2023-05-17T01:44:49.624Z,1.60
2023-05-17T01:45:55.423Z,1.50
2023-05-17T01:46:58.089Z,1.00
2023-05-17T01:48:00.843Z,1.50
2023-05-17T01:49:03.704Z,1.50
2023-05-17T01:50:06.444Z,1.00
2023-05-17T01:51:09.200Z,1.50
2023-05-17T01:52:11.985Z,1.00
2023-05-17T01:53:14.638Z,0.50
2023-05-17T01:54:17.409Z,1.00
2023-05-17T01:55:20.095Z,1.50
2023-05-17T01:56:22.794Z,1.00
2023-05-17T01:57:25.491Z,0.50
2023-05-17T01:58:28.169Z,1.50
2023-05-17T01:59:30.859Z,1.50
2023-05-17T02:00:33.534Z,1.25
2023-05-17T02:01:36.241Z,1.75
2023-05-17T02:02:38.995Z,1.00
2023-05-17T02:03:41.731Z,0.00
2023-05-17T02:04:44.493Z,0.50
2023-05-17T02:05:47.240Z,0.50
2023-05-17T02:06:49.987Z,0.50
2023-05-17T02:07:55.738Z,1.50
2023-05-17T02:09:01.216Z,0.00
2023-05-17T02:10:03.962Z,0.50
2023-05-17T02:11:06.681Z,1.50
2023-05-17T02:12:09.369Z,1.00
2023-05-17T02:13:12.017Z,0.50
2023-05-17T02:14:14.702Z,1.00
2023-05-17T02:15:17.414Z,1.00
2023-05-17T02:16:20.146Z,0.50
2023-05-17T02:17:22.799Z,0.50
2023-05-17T02:18:25.595Z,1.00
2023-05-17T02:19:28.406Z,1.00
2023-05-17T02:20:31.195Z,1.00
2023-05-17T02:21:33.900Z,0.50
2023-05-17T02:22:36.588Z,0.50
2023-05-17T02:23:39.301Z,1.25
2023-05-17T02:24:41.991Z,1.60
2023-05-17T02:25:44.698Z,1.50
2023-05-17T02:26:47.368Z,1.00
2023-05-17T02:27:50.090Z,1.00
2023-05-17T02:28:52.784Z,1.00
2023-05-17T02:29:55.485Z,1.00
2023-05-17T02:30:58.121Z,1.50
2023-05-17T02:32:00.759Z,1.50
2023-05-17T02:33:06.522Z,1.50
2023-05-17T02:34:09.460Z,2.00
2023-05-17T02:35:12.133Z,1.75
2023-05-17T02:36:14.931Z,1.50
2023-05-17T02:37:17.643Z,1.00
2023-05-17T02:38:20.336Z,1.00
2023-05-17T02:39:22.923Z,0.50
2023-05-17T02:40:25.572Z,1.50
2023-05-17T02:41:28.233Z,1.40
2023-05-17T02:42:30.883Z,1.00
2023-05-17T02:43:33.533Z,1.50
2023-05-17T02:44:36.246Z,1.50
2023-05-17T02:45:38.958Z,1.00
2023-05-17T02:46:41.616Z,1.00
2023-05-17T02:47:44.490Z,1.25
2023-05-17T02:48:47.367Z,2.00
2023-05-17T02:49:50.033Z,2.00
2023-05-17T02:50:52.678Z,1.50
2023-05-17T02:51:55.247Z,0.50
2023-05-17T02:52:57.903Z,0.50
2023-05-17T02:54:00.648Z,1.00
2023-05-17T02:55:03.512Z,1.50
2023-05-17T02:56:09.107Z,0.50
2023-05-17T02:57:11.810Z,0.50
2023-05-17T02:58:14.538Z,1.00
2023-05-17T02:59:17.285Z,1.50
2023-05-17T03:00:19.961Z,1.50
2023-05-17T03:01:22.653Z,1.50
2023-05-17T03:02:28.522Z,1.50
2023-05-17T03:03:31.588Z,2.00
2023-05-17T03:04:34.670Z,2.25
2023-05-17T03:05:37.409Z,1.50
2023-05-17T03:06:40.112Z,1.00
2023-05-17T03:07:42.767Z,2.00
2023-05-17T03:08:45.376Z,2.25
2023-05-17T03:09:47.980Z,1.00
2023-05-17T03:10:50.644Z,1.00
2023-05-17T03:11:53.346Z,1.25
2023-05-17T03:12:56.019Z,0.75
2023-05-17T03:13:58.630Z,1.00
2023-05-17T03:15:04.170Z,1.00
2023-05-17T03:16:06.878Z,0.50
2023-05-17T03:17:09.545Z,0.50
2023-05-17T03:18:12.309Z,0.50
2023-05-17T03:19:15.092Z,1.00
2023-05-17T03:20:17.827Z,1.00
2023-05-17T03:21:20.516Z,2.00
2023-05-17T03:22:23.116Z,1.00
2023-05-17T03:23:25.801Z,1.00
2023-05-17T03:24:28.697Z,1.00
2023-05-17T03:25:31.558Z,0.50
2023-05-17T03:26:34.318Z,0.50
2023-05-17T03:27:37.275Z,1.00
2023-05-17T03:28:40.070Z,1.00
2023-05-17T03:29:43.138Z,1.00
2023-05-17T03:30:46.010Z,1.60
2023-05-17T03:31:48.878Z,1.75
2023-05-17T03:32:51.826Z,1.50
2023-05-17T03:33:54.796Z,2.00
2023-05-17T03:34:57.625Z,1.50
2023-05-17T03:36:00.575Z,1.50
2023-05-17T03:37:03.396Z,1.25
2023-05-17T03:38:06.249Z,1.50
2023-05-17T03:39:09.182Z,1.00
2023-05-17T03:40:12.108Z,1.50
2023-05-17T03:41:14.941Z,1.25
2023-05-17T03:42:17.749Z,1.00
2023-05-17T03:43:20.418Z,0.50
2023-05-17T03:44:23.272Z,0.00
2023-05-17T03:45:26.153Z,0.00
2023-05-17T03:46:29.106Z,0.50
2023-05-17T03:47:32.153Z,0.50
2023-05-17T03:48:36.368Z,1.00
2023-05-17T03:49:39.117Z,1.00
2023-05-17T03:50:41.946Z,0.50
2023-05-17T03:51:44.856Z,0.50
2023-05-17T03:52:47.602Z,0.25
2023-05-17T03:53:50.505Z,0.00
2023-05-17T03:54:53.395Z,0.00
2023-05-17T03:55:56.274Z,0.00
2023-05-17T03:56:59.123Z,0.50
2023-05-17T03:58:02.045Z,0.50
2023-05-17T03:59:04.724Z,0.50
2023-05-17T04:00:07.413Z,0.00
2023-05-17T04:01:10.019Z,0.50
2023-05-17T04:02:12.728Z,1.00
2023-05-17T04:03:16.563Z,1.00
2023-05-17T04:04:19.381Z,0.50
2023-05-17T04:05:22.143Z,1.00
2023-05-17T04:06:24.837Z,0.50
2023-05-17T04:07:27.460Z,0.60
2023-05-17T04:08:32.585Z,0.50
2023-05-17T04:09:34.214Z,0.50
2023-05-17T04:10:37.062Z,0.50
2023-05-17T04:11:40.027Z,0.50
2023-05-17T04:12:45.482Z,0.00
2023-05-17T04:13:48.151Z,1.00
2023-05-17T04:14:50.788Z,1.00
2023-05-17T04:15:53.524Z,0.00
2023-05-17T04:16:56.390Z,0.60
2023-05-17T04:17:59.426Z,0.75
2023-05-17T04:19:05.409Z,0.75
2023-05-17T04:20:08.131Z,0.75
2023-05-17T04:21:10.848Z,0.50
2023-05-17T04:22:13.487Z,0.00
2023-05-17T04:23:16.135Z,0.25
2023-05-17T04:24:18.791Z,0.50
2023-05-17T04:25:21.539Z,0.20
2023-05-17T04:26:24.134Z,1.00
2023-05-17T04:27:27.169Z,1.50
2023-05-17T04:28:30.112Z,1.50
2023-05-17T04:29:32.934Z,1.40
2023-05-17T04:30:35.746Z,1.00
2023-05-17T04:31:41.438Z,0.50
2023-05-17T04:32:44.263Z,0.00
2023-05-17T04:33:47.033Z,0.00
2023-05-17T04:34:49.830Z,0.00
2023-05-17T04:35:52.492Z,0.00
2023-05-17T04:36:55.220Z,1.00
2023-05-17T04:37:57.866Z,0.50
2023-05-17T04:39:00.518Z,1.00
2023-05-17T04:40:03.176Z,1.50
2023-05-17T04:41:05.855Z,1.00
2023-05-17T04:42:08.460Z,1.00
2023-05-17T04:43:11.240Z,0.50
2023-05-17T04:44:13.863Z,0.50
2023-05-17T04:45:16.713Z,1.25
2023-05-17T04:46:19.631Z,0.50
2023-05-17T04:47:22.331Z,0.00
2023-05-17T04:48:25.071Z,0.00
2023-05-17T04:49:27.896Z,0.00
2023-05-17T04:50:30.850Z,0.00
2023-05-17T04:51:33.739Z,0.50
2023-05-17T04:52:36.816Z,2.00
2023-05-17T04:53:39.449Z,1.00
2023-05-17T04:54:42.331Z,0.50
2023-05-17T04:55:44.979Z,0.25
2023-05-17T04:56:47.636Z,0.75
2023-05-17T04:57:50.278Z,1.00
2023-05-17T04:58:53.231Z,1.00
2023-05-17T04:59:55.921Z,0.50
2023-05-17T05:00:58.531Z,0.50
2023-05-17T05:02:01.223Z,1.50
2023-05-17T05:03:03.985Z,1.50
2023-05-17T05:04:10.031Z,1.00
2023-05-17T05:05:12.740Z,2.00
2023-05-17T05:06:15.545Z,1.00
2023-05-17T05:07:18.226Z,0.50
2023-05-17T05:08:20.876Z,1.00
2023-05-17T05:09:23.543Z,0.50
2023-05-17T05:10:26.227Z,0.50
2023-05-17T05:11:28.932Z,1.00
2023-05-17T05:12:31.709Z,1.00
2023-05-17T05:13:34.422Z,1.00
2023-05-17T05:14:37.114Z,1.25
2023-05-17T05:15:39.829Z,1.50
2023-05-17T05:16:42.552Z,1.50
2023-05-17T05:17:45.281Z,0.50
2023-05-17T05:18:48.144Z,0.50
2023-05-17T05:19:50.982Z,1.00
2023-05-17T05:20:53.709Z,1.00
2023-05-17T05:21:56.564Z,0.50
2023-05-17T05:22:59.491Z,0.50
2023-05-17T05:24:02.280Z,0.50
2023-05-17T05:25:05.194Z,0.00
2023-05-17T05:26:08.054Z,0.50
2023-05-17T05:27:11.022Z,1.00
2023-05-17T05:28:14.032Z,1.00
2023-05-17T05:29:16.862Z,1.00
2023-05-17T05:30:19.744Z,0.50
2023-05-17T05:31:22.563Z,0.00
2023-05-17T05:32:25.386Z,0.00
2023-05-17T05:33:28.285Z,0.00
2023-05-17T05:34:31.232Z,0.50
2023-05-17T05:35:34.053Z,1.00
2023-05-17T05:36:37.043Z,0.00
2023-05-17T05:37:42.520Z,0.25
2023-05-17T05:38:45.197Z,0.50
2023-05-17T05:39:47.899Z,1.00
2023-05-17T05:40:50.652Z,1.00
2023-05-17T05:41:53.377Z,0.00
2023-05-17T05:42:56.024Z,0.00
2023-05-17T05:43:58.722Z,0.50
2023-05-17T05:45:01.338Z,0.00
2023-05-17T05:46:04.028Z,0.50
2023-05-17T05:47:09.630Z,0.00
2023-05-17T05:48:12.473Z,0.50
2023-05-17T05:49:15.432Z,0.75
2023-05-17T05:50:18.200Z,0.00
2023-05-17T05:51:22.588Z,0.50
2023-05-17T05:52:24.887Z,0.50
2023-05-17T05:53:27.660Z,0.00
2023-05-17T05:54:30.409Z,0.25
2023-05-17T05:55:33.180Z,1.00
2023-05-17T05:56:40.596Z,1.00
2023-05-17T05:57:43.303Z,0.75
2023-05-17T05:58:45.991Z,0.50
2023-05-17T05:59:48.698Z,1.00
2023-05-17T06:00:52.383Z,1.00
2023-05-17T06:01:55.023Z,1.00
2023-05-17T06:02:57.704Z,0.50
2023-05-17T06:04:00.406Z,0.00
2023-05-17T06:05:03.290Z,0.00
2023-05-17T06:06:06.056Z,0.50
2023-05-17T06:07:08.947Z,1.00
2023-05-17T06:08:11.714Z,0.50
2023-05-17T06:09:14.454Z,0.00
2023-05-17T06:10:18.466Z,0.50
2023-05-17T06:11:21.353Z,0.50
2023-05-17T06:12:24.019Z,0.00
2023-05-17T06:13:26.730Z,0.00
2023-05-17T06:14:29.491Z,0.00
2023-05-17T06:15:32.226Z,0.00
2023-05-17T06:16:34.909Z,0.50
2023-05-17T06:17:37.691Z,1.00
2023-05-17T06:18:43.748Z,0.50
2023-05-17T06:19:46.614Z,0.50
2023-05-17T06:20:49.453Z,1.00
2023-05-17T06:21:52.108Z,0.50
2023-05-17T06:22:57.603Z,0.50
2023-05-17T06:24:01.089Z,0.50
2023-05-17T06:25:04.298Z,1.00
2023-05-17T06:26:07.111Z,0.00
2023-05-17T06:27:09.945Z,0.50
2023-05-17T06:28:12.646Z,0.00
2023-05-17T06:29:15.346Z,0.00
2023-05-17T06:30:18.156Z,0.50
2023-05-17T06:31:21.239Z,1.00
2023-05-17T06:32:23.971Z,1.25
2023-05-17T06:33:26.794Z,1.50
2023-05-17T06:34:29.696Z,1.50
2023-05-17T06:35:40.817Z,1.00
2023-05-17T06:36:37.612Z,0.50
2023-05-17T06:37:40.302Z,1.00
2023-05-17T06:38:43.371Z,0.00
2023-05-17T06:39:55.595Z,0.60
2023-05-17T06:40:50.369Z,0.50
2023-05-17T06:41:53.274Z,1.00
2023-05-17T06:42:56.265Z,1.00
2023-05-17T06:43:59.189Z,0.00
2023-05-17T06:45:02.060Z,0.00
2023-05-17T06:46:05.025Z,0.50
2023-05-17T06:47:08.021Z,0.00
2023-05-17T06:48:10.890Z,0.00
2023-05-17T06:49:13.766Z,0.75
2023-05-17T06:50:16.419Z,0.50
2023-05-17T06:51:22.226Z,0.00
2023-05-17T06:52:24.944Z,0.50
2023-05-17T06:53:27.695Z,1.00
2023-05-17T06:54:30.326Z,1.00
2023-05-17T06:55:34.846Z,0.50
2023-05-17T06:56:36.993Z,0.50
2023-05-17T06:57:39.775Z,1.00
2023-05-17T06:58:42.469Z,1.25
2023-05-17T06:59:45.083Z,0.50
2023-05-17T07:00:50.631Z,1.00
2023-05-17T07:01:53.290Z,1.25
2023-05-17T07:02:56.114Z,1.00
2023-05-17T07:03:58.907Z,1.00
2023-05-17T07:05:01.818Z,1.00
2023-05-17T07:06:04.796Z,1.00
2023-05-17T07:07:07.530Z,1.00
2023-05-17T07:08:10.286Z,0.50
2023-05-17T07:09:12.934Z,0.50
2023-05-17T07:10:18.477Z,1.00
2023-05-17T07:11:21.194Z,1.00
2023-05-17T07:12:23.911Z,0.75
2023-05-17T07:13:29.353Z,1.50
2023-05-17T07:14:32.049Z,0.75
2023-05-17T07:15:34.816Z,0.75
2023-05-17T07:16:37.519Z,0.50
2023-05-17T07:17:40.331Z,1.00
2023-05-17T07:18:43.156Z,0.00
2023-05-17T07:19:46.060Z,0.25
2023-05-17T07:20:48.790Z,0.50
2023-05-17T07:21:51.618Z,1.00
2023-05-17T07:22:54.523Z,1.00
2023-05-17T07:23:57.552Z,0.75
2023-05-17T07:25:00.483Z,1.00
2023-05-17T07:26:03.360Z,1.00
2023-05-17T07:27:09.043Z,1.25
2023-05-17T07:28:11.952Z,1.50
2023-05-17T07:29:14.876Z,0.50
2023-05-17T07:30:17.826Z,0.50
2023-05-17T07:31:20.854Z,0.50
2023-05-17T07:32:24.107Z,0.50
2023-05-17T07:33:29.837Z,0.50
2023-05-17T07:34:32.637Z,0.50
2023-05-17T07:35:35.220Z,0.25
2023-05-17T07:36:38.108Z,0.75
2023-05-17T07:37:40.951Z,1.00
2023-05-17T07:38:45.715Z,1.00
2023-05-17T07:39:47.959Z,0.50
2023-05-17T07:40:50.677Z,0.00
2023-05-17T07:41:53.287Z,0.50
2023-05-17T07:42:58.714Z,0.50
2023-05-17T07:44:01.388Z,0.25
2023-05-17T07:45:04.088Z,0.00
2023-05-17T07:46:09.616Z,1.00
2023-05-17T07:47:12.500Z,0.50
2023-05-17T07:48:15.698Z,0.50
2023-05-17T07:49:18.774Z,1.00
2023-05-17T07:50:21.882Z,1.50
2023-05-17T07:51:24.939Z,1.50
2023-05-17T07:52:27.977Z,0.60
2023-05-17T07:53:30.975Z,1.00
2023-05-17T07:54:33.961Z,1.00
2023-05-17T07:55:36.922Z,0.75
2023-05-17T07:56:39.570Z,1.00
2023-05-17T07:57:42.322Z,1.00
2023-05-17T07:58:45.222Z,1.00
2023-05-17T07:59:47.872Z,1.00
2023-05-17T08:00:50.608Z,1.00
2023-05-17T08:01:53.388Z,1.00
2023-05-17T08:02:56.203Z,1.00
2023-05-17T08:03:59.138Z,1.50
2023-05-17T08:05:02.048Z,1.50
2023-05-17T08:06:04.861Z,1.50
2023-05-17T08:07:07.622Z,1.50
2023-05-17T08:08:10.435Z,1.00
2023-05-17T08:09:13.133Z,1.50
2023-05-17T08:10:15.931Z,1.50
2023-05-17T08:11:18.744Z,1.00
2023-05-17T08:12:21.457Z,1.00
2023-05-17T08:13:24.182Z,1.00
2023-05-17T08:14:26.986Z,1.00
2023-05-17T08:15:30.027Z,1.00
2023-05-17T08:16:32.936Z,1.25
2023-05-17T08:17:35.715Z,1.00
2023-05-17T08:18:38.598Z,1.00
2023-05-17T08:19:41.564Z,1.00
2023-05-17T08:20:44.558Z,1.00
2023-05-17T08:21:47.493Z,0.40
2023-05-17T08:22:50.414Z,0.75
2023-05-17T08:23:55.808Z,1.00
2023-05-17T08:24:58.499Z,1.00
2023-05-17T08:26:01.113Z,1.00
2023-05-17T08:27:06.459Z,0.50
2023-05-17T08:28:11.817Z,0.50
2023-05-17T08:29:14.402Z,1.00
2023-05-17T08:30:28.205Z,1.00
2023-05-17T08:31:20.897Z,0.50
2023-05-17T08:32:23.614Z,0.50
2023-05-17T08:33:26.512Z,0.50
2023-05-17T08:34:29.149Z,0.50
2023-05-17T08:35:31.924Z,1.00
2023-05-17T08:36:34.776Z,0.00
2023-05-17T08:37:37.552Z,0.00
2023-05-17T08:38:40.564Z,0.75
2023-05-17T08:39:43.573Z,1.00
2023-05-17T08:40:46.491Z,1.00
2023-05-17T08:41:52.250Z,1.00
2023-05-17T08:42:54.883Z,1.00
2023-05-17T08:43:57.715Z,1.00
2023-05-17T08:45:00.595Z,1.00
2023-05-17T08:46:06.223Z,1.00
2023-05-17T08:47:08.881Z,1.00
2023-05-17T08:48:11.799Z,0.50
2023-05-17T08:49:14.725Z,1.00
2023-05-17T08:50:20.534Z,1.00
2023-05-17T08:51:23.238Z,1.00
2023-05-17T08:52:25.982Z,1.50
2023-05-17T08:53:28.779Z,1.00
2023-05-17T08:54:31.397Z,1.00
2023-05-17T08:55:34.029Z,0.50
2023-05-17T08:56:36.789Z,2.00
2023-05-17T08:57:39.476Z,1.00
2023-05-17T08:58:55.552Z,1.00
2023-05-17T08:59:46.066Z,1.00
2023-05-17T09:00:48.685Z,1.00
2023-05-17T09:01:51.360Z,0.75
2023-05-17T09:02:54.095Z,1.80
2023-05-17T09:03:56.856Z,1.50
2023-05-17T09:04:59.739Z,2.00
2023-05-17T09:06:02.707Z,1.50
2023-05-17T09:07:05.485Z,1.00
2023-05-17T09:08:08.166Z,1.50
2023-05-17T09:09:13.610Z,1.00
2023-05-17T09:10:16.285Z,1.00
2023-05-17T09:11:18.934Z,1.50
2023-05-17T09:12:23.452Z,1.00
2023-05-17T09:13:25.617Z,2.00
2023-05-17T09:14:28.350Z,1.50
2023-05-17T09:15:31.065Z,0.50
2023-05-17T09:16:33.829Z,0.50
2023-05-17T09:17:36.584Z,1.50
2023-05-17T09:18:42.404Z,2.00
2023-05-17T09:19:45.548Z,1.00
2023-05-17T09:20:48.354Z,1.00
2023-05-17T09:21:51.080Z,1.00
2023-05-17T09:22:53.750Z,0.50
2023-05-17T09:25:00.322Z,1.25
2023-05-17T09:26:03.086Z,1.50
2023-05-17T09:27:05.875Z,1.00
2023-05-17T09:28:08.539Z,1.00
2023-05-17T09:29:11.303Z,1.00
2023-05-17T09:30:16.830Z,1.40
2023-05-17T09:31:19.527Z,1.00
2023-05-17T09:32:22.253Z,0.00
2023-05-17T09:33:24.976Z,0.50
2023-05-17T09:34:27.712Z,1.00
2023-05-17T09:35:30.572Z,0.00
2023-05-17T09:36:33.441Z,1.00
2023-05-17T09:37:36.164Z,2.00
2023-05-17T09:38:38.834Z,1.50
2023-05-17T09:39:41.632Z,2.00
2023-05-17T09:40:44.287Z,2.50
2023-05-17T09:41:47.665Z,3.00
2023-05-17T09:42:50.858Z,3.00
2023-05-17T09:43:53.534Z,2.00
2023-05-17T09:44:56.251Z,2.00
2023-05-17T09:45:59.055Z,2.50
2023-05-17T09:47:01.908Z,1.50
2023-05-17T09:48:04.754Z,1.25
2023-05-17T09:49:07.539Z,1.25
2023-05-17T09:50:10.285Z,2.00
2023-05-17T09:51:13.095Z,1.00
2023-05-17T09:52:15.772Z,1.00
2023-05-17T09:53:18.495Z,1.50
2023-05-17T09:54:21.196Z,1.00
2023-05-17T09:55:23.936Z,1.50
2023-05-17T09:56:26.672Z,2.00
2023-05-17T09:57:29.397Z,2.00
2023-05-17T09:58:35.160Z,1.25
2023-05-17T09:59:37.883Z,2.00
2023-05-17T10:00:40.611Z,2.50
2023-05-17T10:01:43.339Z,1.50
2023-05-17T10:02:46.076Z,1.00
2023-05-17T10:03:48.814Z,1.50
2023-05-17T10:04:51.602Z,1.50
2023-05-17T10:05:54.229Z,2.00
2023-05-17T10:06:56.957Z,1.25
2023-05-17T10:07:59.719Z,1.00
2023-05-17T10:09:02.577Z,1.50
2023-05-17T10:10:05.303Z,1.50
2023-05-17T10:11:08.003Z,1.00
2023-05-17T10:12:10.718Z,1.50
2023-05-17T10:13:13.527Z,1.00
2023-05-17T10:14:16.213Z,1.00
2023-05-17T10:15:18.969Z,1.50
2023-05-17T10:16:21.702Z,1.00
2023-05-17T10:17:24.429Z,1.00
2023-05-17T10:18:27.256Z,1.00
2023-05-17T10:19:30.184Z,1.00
2023-05-17T10:20:32.967Z,1.75
2023-05-17T10:21:35.690Z,2.00
2023-05-17T10:22:41.319Z,2.25
2023-05-17T10:23:44.184Z,2.50
2023-05-17T10:24:46.945Z,2.00
2023-05-17T10:25:49.646Z,2.25
2023-05-17T10:26:52.476Z,2.00
2023-05-17T10:27:55.286Z,1.50
2023-05-17T10:28:57.994Z,1.00
2023-05-17T10:30:00.719Z,1.00
2023-05-17T10:31:06.495Z,1.00
2023-05-17T10:32:09.207Z,0.50
2023-05-17T10:33:11.998Z,1.00
2023-05-17T10:34:14.931Z,1.50
2023-05-17T10:35:17.674Z,2.00
2023-05-17T10:36:20.386Z,1.50
2023-05-17T10:37:23.078Z,1.00
2023-05-17T10:38:32.026Z,1.50
2023-05-17T10:39:29.765Z,1.00
2023-05-17T10:40:32.573Z,1.00
2023-05-17T10:41:35.285Z,1.00
2023-05-17T10:42:38.079Z,1.00
2023-05-17T10:43:41.033Z,1.00
2023-05-17T10:44:43.814Z,1.50
2023-05-17T10:45:46.488Z,2.00
2023-05-17T10:46:49.202Z,2.00
2023-05-17T10:47:54.654Z,1.50
2023-05-17T10:48:57.438Z,1.50
2023-05-17T10:50:00.288Z,2.00
2023-05-17T10:51:02.907Z,2.00
2023-05-17T10:52:05.699Z,1.50
2023-05-17T10:53:08.468Z,1.00
2023-05-17T10:54:11.334Z,0.75
2023-05-17T10:55:14.079Z,1.00
2023-05-17T10:56:16.851Z,1.00
2023-05-17T10:57:19.634Z,1.25
2023-05-17T10:58:22.309Z,1.00
2023-05-17T10:59:24.991Z,1.00
2023-05-17T11:00:28.045Z,1.00
2023-05-17T11:01:30.955Z,0.50
2023-05-17T11:02:33.531Z,1.00
2023-05-17T11:03:36.234Z,2.00
2023-05-17T11:04:38.992Z,1.50
2023-05-17T11:05:42.178Z,1.00
2023-05-17T11:06:45.089Z,1.50
2023-05-17T11:07:47.778Z,1.50
2023-05-17T11:08:50.636Z,0.50
2023-05-17T11:09:53.377Z,1.00
2023-05-17T11:10:56.119Z,1.50
2023-05-17T11:11:58.805Z,1.00
2023-05-17T11:13:01.549Z,1.00
2023-05-17T11:14:04.167Z,1.75
2023-05-17T11:15:08.395Z,1.40
2023-05-17T11:16:10.707Z,1.00
2023-05-17T11:17:13.337Z,0.60
2023-05-17T11:18:26.609Z,0.75
2023-05-17T11:19:22.755Z,1.00
2023-05-17T11:20:25.712Z,0.00
2023-05-17T11:21:28.487Z,0.50
2023-05-17T11:22:31.280Z,0.50
2023-05-17T11:23:33.991Z,0.00
2023-05-17T11:24:36.632Z,0.00
2023-05-17T11:25:39.349Z,0.50
2023-05-17T11:26:42.111Z,0.50
2023-05-17T11:27:44.758Z,0.25
2023-05-17T11:28:47.509Z,0.00
2023-05-17T11:29:50.178Z,0.00
2023-05-17T11:30:52.801Z,0.50
2023-05-17T11:32:04.488Z,1.00
2023-05-17T11:33:13.933Z,3.00
2023-05-17T11:34:11.885Z,1.00
2023-05-17T11:35:15.152Z,0.50
2023-05-17T11:36:18.200Z,0.25
2023-05-17T11:37:21.405Z,1.00
2023-05-17T11:38:24.592Z,0.50
2023-05-17T11:39:27.748Z,1.50
2023-05-17T11:40:31.220Z,0.50
2023-05-17T11:41:34.690Z,1.00
2023-05-17T11:42:37.843Z,1.00
2023-05-17T11:43:41.041Z,0.50
2023-05-17T11:44:44.104Z,0.50
2023-05-17T11:45:47.300Z,0.50
2023-05-17T11:46:50.532Z,1.50
2023-05-17T11:47:53.867Z,1.50
2023-05-17T11:48:57.058Z,1.50
2023-05-17T11:50:00.323Z,1.50
2023-05-17T11:51:03.496Z,0.50
2023-05-17T11:52:06.705Z,0.50
2023-05-17T11:53:09.759Z,1.00
2023-05-17T11:54:12.934Z,1.00
2023-05-17T11:55:16.054Z,1.50
2023-05-17T11:56:20.681Z,1.00
2023-05-17T11:57:23.614Z,1.00
2023-05-17T11:58:26.864Z,1.50
2023-05-17T11:59:30.176Z,0.50
2023-05-17T12:00:33.478Z,1.00
2023-05-17T12:01:36.763Z,1.00
2023-05-17T12:02:39.969Z,0.50
2023-05-17T12:03:43.105Z,0.75
2023-05-17T12:04:46.433Z,1.00
2023-05-17T12:05:49.684Z,0.75
2023-05-17T12:06:53.351Z,0.50
2023-05-17T12:07:56.852Z,0.50
2023-05-17T12:09:00.163Z,1.00
2023-05-17T12:10:03.448Z,1.00
2023-05-17T12:11:06.633Z,1.00
2023-05-17T12:12:09.763Z,0.80
2023-05-17T12:13:12.892Z,1.00
2023-05-17T12:14:16.075Z,1.50
2023-05-17T12:15:19.229Z,0.50
2023-05-17T12:16:24.853Z,1.00
2023-05-17T12:17:28.181Z,1.00
2023-05-17T12:18:31.301Z,0.25
2023-05-17T12:19:34.953Z,0.50
2023-05-17T12:20:38.223Z,1.00
2023-05-17T12:21:41.539Z,1.00
2023-05-17T12:22:44.784Z,1.00
2023-05-17T12:23:50.339Z,1.00
2023-05-17T12:24:52.809Z,1.00
2023-05-17T12:25:56.374Z,0.50
2023-05-17T12:26:59.598Z,1.00
2023-05-17T12:28:02.953Z,1.50
2023-05-17T12:29:08.183Z,1.50
2023-05-17T12:30:11.912Z,1.00
2023-05-17T12:31:15.163Z,1.50
2023-05-17T12:32:18.217Z,1.00
2023-05-17T12:33:21.594Z,0.50
2023-05-17T12:34:24.819Z,0.50
2023-05-17T12:35:28.067Z,1.00
2023-05-17T12:36:31.167Z,0.75
2023-05-17T12:37:34.332Z,1.00
2023-05-17T12:38:37.536Z,1.00
2023-05-17T12:39:41.023Z,1.50
2023-05-17T12:40:44.307Z,2.00
2023-05-17T12:41:47.589Z,1.50
2023-05-17T12:42:50.982Z,1.00
2023-05-17T12:44:06.228Z,2.50
2023-05-17T12:44:58.578Z,2.50
2023-05-17T12:46:02.393Z,2.25
2023-05-17T12:47:05.847Z,2.00
2023-05-17T12:48:09.193Z,2.25
2023-05-17T12:49:12.918Z,1.50
2023-05-17T12:50:16.128Z,1.50
2023-05-17T12:51:19.517Z,2.00
2023-05-17T12:52:22.682Z,2.00
2023-05-17T12:53:25.880Z,1.50
2023-05-17T12:54:29.042Z,1.50
2023-05-17T12:55:32.226Z,1.50
2023-05-17T12:56:35.313Z,2.00
2023-05-17T12:57:38.491Z,1.50
2023-05-17T12:58:41.567Z,1.75
2023-05-17T12:59:44.646Z,2.50
2023-05-17T13:00:47.728Z,2.00
2023-05-17T13:01:51.024Z,2.00
2023-05-17T13:02:54.273Z,1.50
2023-05-17T13:03:57.633Z,1.50
2023-05-17T13:05:01.290Z,2.00
2023-05-17T13:06:04.462Z,1.50
2023-05-17T13:07:07.640Z,1.00
2023-05-17T13:08:10.833Z,1.50
2023-05-17T13:09:14.016Z,2.00
2023-05-17T13:10:17.103Z,1.50
2023-05-17T13:11:20.161Z,1.50
2023-05-17T13:12:23.368Z,2.00
2023-05-17T13:13:26.641Z,1.50
2023-05-17T13:14:29.916Z,2.00
2023-05-17T13:15:32.997Z,2.50
2023-05-17T13:16:36.213Z,2.00
2023-05-17T13:17:39.266Z,2.50
2023-05-17T13:18:42.354Z,2.50
2023-05-17T13:19:45.839Z,1.75
2023-05-17T13:20:48.917Z,1.20
2023-05-17T13:21:52.210Z,1.50
2023-05-17T13:22:55.581Z,1.50
2023-05-17T13:23:58.753Z,2.00
2023-05-17T13:25:01.945Z,2.00
2023-05-17T13:26:05.084Z,1.50
2023-05-17T13:27:08.330Z,1.50
2023-05-17T13:28:11.587Z,2.50
2023-05-17T13:29:15.046Z,2.50
2023-05-17T13:30:18.666Z,1.50
2023-05-17T13:31:22.065Z,1.50
2023-05-17T13:32:25.360Z,2.00
2023-05-17T13:33:28.598Z,2.00
2023-05-17T13:34:31.825Z,1.00
2023-05-17T13:35:35.085Z,1.00
2023-05-17T13:36:38.137Z,1.50
2023-05-17T13:37:41.302Z,2.00
2023-05-17T13:38:44.354Z,3.00
2023-05-17T13:39:47.593Z,2.50
2023-05-17T13:40:50.900Z,2.00
2023-05-17T13:41:53.978Z,2.00
2023-05-17T13:42:58.289Z,2.00
2023-05-17T13:44:01.477Z,1.75
2023-05-17T13:45:04.862Z,2.75
2023-05-17T13:46:08.114Z,2.00
2023-05-17T13:47:11.417Z,2.00
2023-05-17T13:48:14.719Z,2.00
2023-05-17T13:49:18.005Z,1.50
2023-05-17T13:50:21.171Z,1.00
2023-05-17T13:51:24.691Z,1.00
2023-05-17T13:52:27.885Z,1.00
2023-05-17T13:53:31.039Z,2.00
2023-05-17T13:54:34.318Z,1.50
2023-05-17T13:55:37.598Z,1.25
2023-05-17T13:56:40.889Z,2.00
2023-05-17T13:57:43.969Z,2.00
2023-05-17T13:58:47.129Z,1.50
2023-05-17T13:59:50.670Z,2.50
2023-05-17T14:00:54.020Z,2.50